createdAt,value
2022-07-31T00:00:29.498Z,2.27
2022-07-31T00:02:58.399Z,1.93
2022-07-31T00:05:26.825Z,1.97
2022-07-31T00:07:55.220Z,1.90
2022-07-31T00:10:23.443Z,2.10
2022-07-31T00:12:53.078Z,2.13
2022-07-31T00:15:21.269Z,2.20
2022-07-31T00:17:50.177Z,1.87
2022-07-31T00:20:19.415Z,2.47
2022-07-31T00:22:49.336Z,2.87
2022-07-31T00:25:19.587Z,2.13
2022-07-31T00:27:48.051Z,2.10
2022-07-31T00:30:17.865Z,2.00
2022-07-31T00:32:46.740Z,2.37
2022-07-31T00:35:17.123Z,2.50
2022-07-31T00:37:45.933Z,2.10
2022-07-31T00:40:17.037Z,2.60
2022-07-31T00:42:45.485Z,2.43
2022-07-31T00:45:14.000Z,2.37
2022-07-31T00:47:43.735Z,2.17
2022-07-31T00:50:13.888Z,2.63
2022-07-31T00:52:44.113Z,2.40
2022-07-31T00:55:12.487Z,2.13
2022-07-31T00:57:40.751Z,2.60
2022-07-31T01:00:10.711Z,2.27
2022-07-31T01:02:46.303Z,1.97
2022-07-31T01:05:18.804Z,1.93
2022-07-31T01:07:48.864Z,1.90
2022-07-31T01:10:28.691Z,1.90
2022-07-31T01:13:00.334Z,2.03
2022-07-31T01:15:30.078Z,1.83
2022-07-31T01:17:59.308Z,1.93
2022-07-31T01:20:30.429Z,1.97
2022-07-31T01:23:22.916Z,1.83
2022-07-31T01:26:42.117Z,2.00
2022-07-31T01:29:23.349Z,2.13
2022-07-31T01:31:59.550Z,2.13
2022-07-31T01:34:38.056Z,2.27
2022-07-31T01:37:15.551Z,1.80
2022-07-31T01:39:51.489Z,1.83
2022-07-31T01:42:22.326Z,2.00
2022-07-31T01:45:00.963Z,1.90
2022-07-31T01:47:30.819Z,1.60
2022-07-31T01:50:01.512Z,2.30
2022-07-31T01:52:35.862Z,1.87
2022-07-31T01:55:30.261Z,2.00
2022-07-31T01:58:45.399Z,2.03
2022-07-31T02:01:46.139Z,1.70
2022-07-31T02:04:17.198Z,1.90
2022-07-31T02:06:48.412Z,2.00
2022-07-31T02:09:18.654Z,1.80
2022-07-31T02:12:05.397Z,2.13
2022-07-31T02:14:36.872Z,1.87
2022-07-31T02:17:06.832Z,2.00
2022-07-31T02:20:00.255Z,1.97
2022-07-31T02:22:29.513Z,1.87
2022-07-31T02:24:57.786Z,1.90
2022-07-31T02:27:57.475Z,2.20
2022-07-31T02:30:18.447Z,2.33
2022-07-31T02:32:50.781Z,2.20
2022-07-31T02:35:19.879Z,1.83
2022-07-31T02:37:54.042Z,2.10
2022-07-31T02:40:25.146Z,2.40
2022-07-31T02:42:53.823Z,2.40
2022-07-31T02:45:23.742Z,2.10
2022-07-31T02:47:54.215Z,2.10
2022-07-31T02:50:23.434Z,2.33
2022-07-31T02:52:53.369Z,2.60
2022-07-31T02:55:21.574Z,2.20
2022-07-31T02:57:51.258Z,2.40
2022-07-31T03:00:23.702Z,2.83
2022-07-31T03:02:55.616Z,2.23
2022-07-31T03:05:25.549Z,2.50
2022-07-31T03:07:56.719Z,2.67
2022-07-31T03:10:25.045Z,2.57
2022-07-31T03:13:22.318Z,2.90
2022-07-31T03:15:52.413Z,2.97
2022-07-31T03:18:22.637Z,2.27
2022-07-31T03:20:52.527Z,2.37
2022-07-31T03:23:26.156Z,2.70
2022-07-31T03:26:00.713Z,2.83
2022-07-31T03:28:29.512Z,2.17
2022-07-31T03:30:57.727Z,2.40
2022-07-31T03:33:30.391Z,2.37
2022-07-31T03:35:59.007Z,2.90
2022-07-31T03:38:41.421Z,2.60
2022-07-31T03:41:27.340Z,2.30
2022-07-31T03:43:55.795Z,2.53
2022-07-31T03:46:25.025Z,2.37
2022-07-31T03:48:54.721Z,2.60
2022-07-31T03:51:26.557Z,2.20
2022-07-31T03:53:54.809Z,2.20
2022-07-31T03:56:45.359Z,2.33
2022-07-31T03:59:16.378Z,2.33
2022-07-31T04:01:56.744Z,2.73
2022-07-31T04:04:46.093Z,2.50
2022-07-31T04:07:39.937Z,2.50
2022-07-31T04:10:33.557Z,2.40
2022-07-31T04:13:01.652Z,2.10
2022-07-31T04:15:30.509Z,2.40
2022-07-31T04:17:58.756Z,2.50
2022-07-31T04:20:36.179Z,2.30
2022-07-31T04:23:04.881Z,2.43
2022-07-31T04:25:54.160Z,2.67
2022-07-31T04:28:38.284Z,2.83
2022-07-31T04:31:06.384Z,2.60
2022-07-31T04:33:47.130Z,2.53
2022-07-31T04:36:29.751Z,2.80
2022-07-31T04:38:59.816Z,2.43
2022-07-31T04:41:28.644Z,2.40
2022-07-31T04:43:58.254Z,2.70
2022-07-31T04:46:31.317Z,2.77
2022-07-31T04:48:59.643Z,2.53
2022-07-31T04:51:30.516Z,2.20
2022-07-31T04:53:58.766Z,2.80
2022-07-31T04:56:37.523Z,2.43
2022-07-31T04:59:08.714Z,2.30
2022-07-31T05:01:39.831Z,2.57
2022-07-31T05:04:08.297Z,2.27
2022-07-31T05:06:40.698Z,2.27
2022-07-31T05:09:18.308Z,2.13
2022-07-31T05:11:48.157Z,2.20
2022-07-31T05:14:18.705Z,2.23
2022-07-31T05:16:47.813Z,3.27
2022-07-31T05:19:17.968Z,2.33
2022-07-31T05:22:06.439Z,2.10
2022-07-31T05:24:44.007Z,2.30
2022-07-31T05:27:13.204Z,2.33
2022-07-31T05:29:43.331Z,2.10
2022-07-31T05:32:12.360Z,2.03
2022-07-31T05:34:40.727Z,2.50
2022-07-31T05:37:11.770Z,2.43
2022-07-31T05:39:41.842Z,2.60
2022-07-31T05:42:28.399Z,2.30
2022-07-31T05:45:32.182Z,2.00
2022-07-31T05:48:00.332Z,2.40
2022-07-31T05:50:28.828Z,2.20
2022-07-31T05:52:58.368Z,2.30
2022-07-31T05:55:49.339Z,2.17
2022-07-31T05:58:28.332Z,2.63
2022-07-31T06:00:56.446Z,2.40
2022-07-31T06:03:27.794Z,2.03
2022-07-31T06:06:05.573Z,2.40
2022-07-31T06:08:35.262Z,2.53
2022-07-31T06:11:03.579Z,2.37
2022-07-31T06:13:31.745Z,2.40
2022-07-31T06:16:13.695Z,2.60
2022-07-31T06:18:42.717Z,2.50
2022-07-31T06:23:40.716Z,2.70
2022-07-31T06:26:42.101Z,2.50
2022-07-31T06:29:10.982Z,2.13
2022-07-31T06:31:39.047Z,2.63
2022-07-31T06:34:07.137Z,2.40
2022-07-31T06:36:42.198Z,2.30
2022-07-31T06:39:16.217Z,2.17
2022-07-31T06:41:56.774Z,2.30
2022-07-31T06:44:33.673Z,2.20
2022-07-31T06:47:22.004Z,2.53
2022-07-31T06:49:57.017Z,2.27
2022-07-31T06:52:28.567Z,2.20
2022-07-31T06:54:58.615Z,2.27
2022-07-31T06:57:26.798Z,2.20
2022-07-31T06:59:54.986Z,2.40
2022-07-31T07:02:23.404Z,2.13
2022-07-31T07:04:57.371Z,2.30
2022-07-31T07:07:38.724Z,2.20
2022-07-31T07:10:14.563Z,1.80
2022-07-31T07:13:03.048Z,2.13
2022-07-31T07:15:35.815Z,2.10
2022-07-31T07:18:04.042Z,2.53
2022-07-31T07:20:48.813Z,2.30
2022-07-31T07:23:17.631Z,2.70
2022-07-31T07:25:55.105Z,2.00
2022-07-31T07:28:30.173Z,2.20
2022-07-31T07:31:00.768Z,2.30
2022-07-31T07:33:39.498Z,2.30
2022-07-31T07:36:08.591Z,2.57
2022-07-31T07:38:55.188Z,2.10
2022-07-31T07:41:26.623Z,2.00
2022-07-31T07:43:56.428Z,2.07
2022-07-31T07:46:28.045Z,2.43
2022-07-31T07:49:00.674Z,2.43
2022-07-31T07:52:01.378Z,2.17
2022-07-31T07:54:48.383Z,2.27
2022-07-31T07:57:23.893Z,2.00
2022-07-31T08:00:21.685Z,2.10
2022-07-31T08:03:47.468Z,2.00
2022-07-31T08:05:47.696Z,2.07
2022-07-31T08:08:15.826Z,1.80
2022-07-31T08:11:04.870Z,1.70
2022-07-31T08:14:00.075Z,2.30
2022-07-31T08:16:47.048Z,2.33
2022-07-31T08:19:15.803Z,1.77
2022-07-31T08:21:44.850Z,1.80
2022-07-31T08:24:13.211Z,2.20
2022-07-31T08:26:59.454Z,1.80
2022-07-31T08:29:30.700Z,1.60
2022-07-31T08:32:15.077Z,1.60
2022-07-31T08:35:05.968Z,1.87
2022-07-31T08:37:50.826Z,1.60
2022-07-31T08:40:25.388Z,1.47
2022-07-31T08:42:53.820Z,1.47
2022-07-31T08:45:24.122Z,1.80
2022-07-31T08:48:10.592Z,1.50
2022-07-31T08:50:50.895Z,1.30
2022-07-31T08:53:49.625Z,1.20
2022-07-31T08:56:20.412Z,1.67
2022-07-31T08:58:48.510Z,1.80
2022-07-31T09:01:18.437Z,1.50
2022-07-31T09:03:47.099Z,1.27
2022-07-31T09:06:16.813Z,1.70
2022-07-31T09:08:44.897Z,1.33
2022-07-31T09:11:14.698Z,1.30
2022-07-31T09:14:01.564Z,1.30
2022-07-31T09:16:54.580Z,1.33
2022-07-31T09:19:51.804Z,1.40
2022-07-31T09:22:31.849Z,1.20
2022-07-31T09:25:13.076Z,1.30
2022-07-31T09:27:41.693Z,1.50
2022-07-31T09:30:11.697Z,1.20
2022-07-31T09:33:17.441Z,1.50
2022-07-31T09:36:01.044Z,1.60
2022-07-31T09:38:34.401Z,1.40
2022-07-31T09:42:02.021Z,1.60
2022-07-31T09:44:25.958Z,1.60
2022-07-31T09:46:54.539Z,2.23
2022-07-31T09:49:33.396Z,1.80
2022-07-31T09:52:02.057Z,1.70
2022-07-31T09:54:32.254Z,2.10
2022-07-31T09:57:11.028Z,1.87
2022-07-31T09:59:40.259Z,1.40
2022-07-31T10:02:10.167Z,2.33
2022-07-31T10:04:39.869Z,1.60
2022-07-31T10:07:31.960Z,2.40
2022-07-31T10:10:09.450Z,1.63
2022-07-31T10:12:47.842Z,1.53
2022-07-31T10:15:18.868Z,1.30
2022-07-31T10:17:53.599Z,1.27
2022-07-31T10:20:52.542Z,1.50
2022-07-31T10:23:34.343Z,1.60
2022-07-31T10:26:05.050Z,1.70
2022-07-31T10:28:37.462Z,1.60
2022-07-31T10:31:06.110Z,1.50
2022-07-31T10:33:44.570Z,1.63
2022-07-31T10:36:36.809Z,2.00
2022-07-31T10:39:36.934Z,1.70
2022-07-31T10:42:42.468Z,1.40
2022-07-31T10:45:14.017Z,1.70
2022-07-31T10:48:03.149Z,1.60
2022-07-31T10:51:01.457Z,1.60
2022-07-31T10:54:00.542Z,1.70
2022-07-31T10:56:48.486Z,1.50
2022-07-31T10:59:30.108Z,1.30
2022-07-31T11:02:29.700Z,1.30
2022-07-31T11:05:23.609Z,1.30
2022-07-31T11:08:04.389Z,1.90
2022-07-31T11:11:00.914Z,1.50
2022-07-31T11:13:57.928Z,1.60
2022-07-31T11:16:51.189Z,1.70
2022-07-31T11:19:41.168Z,1.80
2022-07-31T11:22:31.339Z,1.50
2022-07-31T11:25:01.663Z,1.53
2022-07-31T11:27:35.298Z,1.50
2022-07-31T11:30:13.081Z,1.60
2022-07-31T11:32:43.980Z,1.50
2022-07-31T11:35:24.537Z,1.67
2022-07-31T11:37:57.944Z,1.73
2022-07-31T11:40:28.333Z,1.50
2022-07-31T11:43:25.165Z,1.47
2022-07-31T11:45:48.513Z,1.50
2022-07-31T11:48:19.251Z,1.37
2022-07-31T11:50:49.634Z,1.60
2022-07-31T11:53:18.359Z,1.60
2022-07-31T11:55:49.808Z,1.43
2022-07-31T11:58:20.689Z,1.60
2022-07-31T12:00:53.982Z,1.40
2022-07-31T12:03:24.329Z,1.73
2022-07-31T12:05:53.998Z,1.60
2022-07-31T12:08:23.130Z,1.57
2022-07-31T12:10:54.058Z,1.23
2022-07-31T12:13:25.791Z,1.40
2022-07-31T12:16:00.199Z,1.57
2022-07-31T12:18:30.136Z,1.30
2022-07-31T12:21:00.929Z,1.63
2022-07-31T12:23:41.987Z,1.30
2022-07-31T12:26:14.370Z,1.50
2022-07-31T12:28:58.970Z,1.60
2022-07-31T12:31:27.149Z,1.70
2022-07-31T12:33:55.705Z,1.60
2022-07-31T12:36:23.884Z,1.30
2022-07-31T12:39:01.267Z,1.50
2022-07-31T12:41:29.790Z,1.70
2022-07-31T12:44:10.946Z,1.53
2022-07-31T12:46:41.618Z,1.40
2022-07-31T12:49:09.949Z,1.60
2022-07-31T12:51:44.986Z,1.37
2022-07-31T12:54:16.469Z,1.80
2022-07-31T12:57:10.095Z,1.30
2022-07-31T12:59:39.760Z,1.10
2022-07-31T13:02:08.168Z,1.50
2022-07-31T13:04:36.665Z,1.30
2022-07-31T13:07:05.288Z,1.40
2022-07-31T13:09:33.738Z,1.17
2022-07-31T13:12:01.876Z,1.40
2022-07-31T13:14:29.909Z,2.13
2022-07-31T13:16:59.271Z,1.67
2022-07-31T13:19:27.317Z,1.30
2022-07-31T13:21:56.856Z,1.53
2022-07-31T13:24:26.188Z,1.40
2022-07-31T13:26:54.292Z,1.40
2022-07-31T13:29:22.327Z,1.33
2022-07-31T13:31:50.799Z,1.30
2022-07-31T13:34:20.271Z,1.40
2022-07-31T13:36:48.479Z,1.40
2022-07-31T13:39:16.506Z,1.30
2022-07-31T13:41:44.605Z,1.40
2022-07-31T13:44:12.821Z,1.30
2022-07-31T13:46:40.903Z,1.47
2022-07-31T13:49:10.366Z,1.30
2022-07-31T13:51:40.619Z,1.60
2022-07-31T13:54:09.043Z,1.43
2022-07-31T13:56:42.782Z,1.50
2022-07-31T13:59:16.174Z,1.27
2022-07-31T14:02:03.988Z,1.53
2022-07-31T14:04:38.962Z,1.70
2022-07-31T14:07:09.303Z,1.40
2022-07-31T14:09:37.813Z,1.53
2022-07-31T14:12:07.028Z,1.30
2022-07-31T14:14:35.610Z,1.30
2022-07-31T14:17:03.695Z,1.40
2022-07-31T14:19:40.595Z,1.47
2022-07-31T14:22:15.128Z,1.20
2022-07-31T14:24:49.876Z,1.30
2022-07-31T14:27:20.889Z,1.43
2022-07-31T14:29:49.125Z,1.50
2022-07-31T14:32:17.207Z,1.90
2022-07-31T14:34:45.245Z,3.00
2022-07-31T14:37:14.645Z,1.87
2022-07-31T14:39:43.271Z,1.40
2022-07-31T14:42:12.518Z,2.33
2022-07-31T14:44:42.018Z,2.00
2022-07-31T14:47:11.740Z,1.87
2022-07-31T14:50:09.179Z,1.40
2022-07-31T14:52:30.734Z,1.67
2022-07-31T14:55:00.452Z,1.60
2022-07-31T14:57:28.874Z,1.60
2022-07-31T14:59:56.976Z,1.40
2022-07-31T15:02:25.351Z,1.63
2022-07-31T15:04:54.230Z,1.63
2022-07-31T15:07:45.430Z,1.80
2022-07-31T15:10:13.066Z,1.50
2022-07-31T15:12:41.658Z,1.50
2022-07-31T15:15:11.188Z,1.60
2022-07-31T15:17:39.390Z,1.77
2022-07-31T15:20:08.792Z,1.87
2022-07-31T15:22:36.825Z,1.50
2022-07-31T15:25:05.865Z,1.33
2022-07-31T15:27:35.180Z,1.80
2022-07-31T15:30:06.608Z,1.33
2022-07-31T15:32:37.665Z,1.50
2022-07-31T15:35:07.952Z,1.33
2022-07-31T15:37:37.927Z,1.50
2022-07-31T15:40:08.785Z,1.90
2022-07-31T15:42:41.654Z,2.10
2022-07-31T15:45:12.564Z,1.70
2022-07-31T15:47:42.113Z,1.63
2022-07-31T15:50:12.993Z,1.40
2022-07-31T15:52:42.604Z,1.30
2022-07-31T15:55:11.499Z,1.53
2022-07-31T15:57:40.947Z,1.47
2022-07-31T16:00:12.172Z,1.70
2022-07-31T16:02:41.609Z,1.20
2022-07-31T16:05:21.760Z,1.37
2022-07-31T16:08:31.380Z,1.40
2022-07-31T16:10:51.277Z,1.97
2022-07-31T16:13:24.075Z,1.43
2022-07-31T16:15:52.460Z,1.40
2022-07-31T16:18:21.369Z,1.80
2022-07-31T16:20:49.955Z,2.40
2022-07-31T16:23:18.074Z,1.50
2022-07-31T16:25:46.210Z,1.50
2022-07-31T16:28:15.017Z,1.73
2022-07-31T16:30:48.245Z,1.50
2022-07-31T16:33:16.377Z,1.20
2022-07-31T16:35:44.451Z,1.50
2022-07-31T16:38:12.513Z,1.77
2022-07-31T16:40:40.688Z,1.47
2022-07-31T16:43:50.422Z,1.30
2022-07-31T16:45:58.775Z,1.80
2022-07-31T16:48:26.854Z,1.70
2022-07-31T16:50:55.339Z,1.63
2022-07-31T16:54:11.700Z,1.77
2022-07-31T16:56:15.920Z,1.83
2022-07-31T16:58:44.714Z,1.70
2022-07-31T17:01:57.583Z,1.70
2022-07-31T17:04:04.621Z,1.60
2022-07-31T17:06:36.845Z,1.27
2022-07-31T17:09:16.836Z,1.90
2022-07-31T17:11:48.180Z,1.50
2022-07-31T17:14:17.319Z,1.70
2022-07-31T17:16:49.236Z,1.57
2022-07-31T17:19:42.492Z,1.67
2022-07-31T17:22:07.767Z,2.20
2022-07-31T17:24:37.718Z,1.90
2022-07-31T17:27:08.246Z,1.80
2022-07-31T17:29:38.001Z,1.70
2022-07-31T17:32:08.019Z,1.47
2022-07-31T17:34:39.538Z,1.53
2022-07-31T17:37:08.356Z,1.57
2022-07-31T17:39:37.134Z,1.60
2022-07-31T17:42:05.716Z,1.70
2022-07-31T17:44:33.752Z,1.60
2022-07-31T17:47:03.738Z,2.33
2022-07-31T17:49:35.174Z,2.00
2022-07-31T17:52:03.358Z,2.10
2022-07-31T17:54:32.513Z,1.67
2022-07-31T17:57:01.105Z,1.53
2022-07-31T17:59:29.749Z,1.50
2022-07-31T18:02:00.695Z,1.70
2022-07-31T18:04:31.098Z,1.30
2022-07-31T18:07:04.365Z,1.70
2022-07-31T18:09:32.936Z,1.40
2022-07-31T18:12:01.850Z,1.43
2022-07-31T18:14:30.074Z,1.53
2022-07-31T18:16:58.211Z,1.57
2022-07-31T18:19:26.557Z,1.47
2022-07-31T18:21:55.773Z,1.43
2022-07-31T18:24:25.919Z,1.70
2022-07-31T18:26:54.743Z,1.33
2022-07-31T18:29:22.846Z,1.30
2022-07-31T18:31:51.078Z,1.40
2022-07-31T18:34:19.188Z,1.40
2022-07-31T18:36:54.232Z,1.40
2022-07-31T18:39:24.467Z,1.50
2022-07-31T18:41:52.632Z,1.30
2022-07-31T18:44:21.863Z,1.47
2022-07-31T18:46:50.055Z,1.10
2022-07-31T18:50:59.053Z,1.40
2022-07-31T18:52:07.328Z,1.50
2022-07-31T18:54:37.022Z,1.60
2022-07-31T18:57:05.361Z,1.40
2022-07-31T18:59:33.532Z,1.20
2022-07-31T19:02:02.344Z,1.20
2022-07-31T19:04:30.889Z,1.30
2022-07-31T19:06:58.961Z,1.10
2022-07-31T19:09:27.080Z,1.17
2022-07-31T19:11:58.841Z,0.93
2022-07-31T19:14:27.488Z,1.30
2022-07-31T19:16:57.783Z,1.23
2022-07-31T19:19:25.854Z,1.20
2022-07-31T19:21:59.749Z,0.90
2022-07-31T19:24:29.519Z,0.90
2022-07-31T19:26:58.908Z,1.20
2022-07-31T19:29:27.013Z,1.27
2022-07-31T19:31:55.100Z,0.97
2022-07-31T19:34:27.658Z,1.17
2022-07-31T19:36:57.050Z,1.23
2022-07-31T19:39:25.115Z,0.90
2022-07-31T19:42:11.791Z,1.10
2022-07-31T19:44:43.533Z,1.10
2022-07-31T19:47:11.688Z,1.20
2022-07-31T19:49:41.258Z,1.07
2022-07-31T19:52:09.547Z,1.40
2022-07-31T19:54:37.938Z,0.90
2022-07-31T19:57:06.445Z,1.10
2022-07-31T19:59:34.544Z,1.40
2022-07-31T20:02:05.005Z,1.10
2022-07-31T20:04:33.404Z,1.20
2022-07-31T20:07:01.396Z,1.20
2022-07-31T20:09:32.383Z,1.20
2022-07-31T20:12:00.478Z,1.13
2022-07-31T20:14:28.550Z,1.10
2022-07-31T20:16:56.633Z,1.13
2022-07-31T20:19:26.075Z,0.93
2022-07-31T20:21:54.216Z,1.03
2022-07-31T20:24:22.251Z,1.20
2022-07-31T20:26:51.782Z,1.30
2022-07-31T20:29:20.194Z,1.10
2022-07-31T20:31:53.478Z,1.07
2022-07-31T20:34:22.447Z,1.00
2022-07-31T20:36:51.897Z,1.20
2022-07-31T20:39:22.466Z,0.80
2022-07-31T20:42:03.528Z,1.23
2022-07-31T20:44:31.992Z,1.20
2022-07-31T20:47:00.107Z,1.00
2022-07-31T20:49:35.241Z,1.00
2022-07-31T20:52:06.464Z,1.10
2022-07-31T20:54:35.036Z,1.10
2022-07-31T20:57:03.421Z,1.17
2022-07-31T20:59:31.540Z,1.30
2022-07-31T21:01:59.570Z,1.00
2022-07-31T21:04:27.597Z,1.20
2022-07-31T21:06:55.716Z,0.90
2022-07-31T21:09:25.085Z,0.90
2022-07-31T21:11:53.565Z,1.10
2022-07-31T21:14:21.637Z,0.93
2022-07-31T21:16:49.658Z,1.03
2022-07-31T21:19:17.759Z,1.17
2022-07-31T21:21:45.973Z,1.30
2022-07-31T21:24:14.542Z,1.20
2022-07-31T21:26:45.580Z,1.73
2022-07-31T21:29:14.532Z,1.27
2022-07-31T21:31:48.700Z,1.13
2022-07-31T21:34:18.006Z,1.00
2022-07-31T21:36:47.808Z,1.40
2022-07-31T21:39:18.833Z,1.10
2022-07-31T21:41:49.575Z,1.20
2022-07-31T21:44:18.687Z,1.30
2022-07-31T21:46:51.677Z,1.43
2022-07-31T21:49:23.022Z,1.10
2022-07-31T21:51:52.039Z,1.20
2022-07-31T21:54:20.196Z,1.00
2022-07-31T21:56:49.566Z,1.20
2022-07-31T21:59:17.604Z,1.17
2022-07-31T22:01:57.911Z,1.37
2022-07-31T22:04:34.954Z,1.20
2022-07-31T22:07:32.619Z,1.40
2022-07-31T22:10:00.987Z,1.30
2022-07-31T22:12:30.537Z,1.40
2022-07-31T22:14:58.579Z,1.00
2022-07-31T22:17:26.631Z,1.53
2022-07-31T22:19:58.547Z,1.97
2022-07-31T22:22:27.613Z,1.47
2022-07-31T22:24:56.135Z,1.50
2022-07-31T22:27:42.741Z,1.40
2022-07-31T22:30:14.581Z,1.17
2022-07-31T22:32:42.875Z,1.50
2022-07-31T22:35:13.555Z,1.70
2022-07-31T22:37:42.826Z,1.50
2022-07-31T22:40:11.922Z,1.43
2022-07-31T22:42:40.395Z,1.40
2022-07-31T22:45:09.948Z,1.27
2022-07-31T22:47:40.709Z,1.63
2022-07-31T22:50:13.030Z,1.57
2022-07-31T22:52:42.220Z,1.47
2022-07-31T22:55:13.563Z,1.50
2022-07-31T22:57:43.783Z,1.60
2022-07-31T23:00:14.938Z,1.37
2022-07-31T23:02:45.683Z,1.50
2022-07-31T23:05:13.877Z,1.37
2022-07-31T23:07:41.931Z,1.63
2022-07-31T23:10:12.246Z,1.30
2022-07-31T23:12:40.347Z,1.60
2022-07-31T23:15:09.067Z,1.50
2022-07-31T23:17:37.624Z,1.53
2022-07-31T23:20:08.471Z,1.40
2022-07-31T23:22:36.725Z,1.50
2022-07-31T23:25:06.846Z,1.57
2022-07-31T23:27:35.680Z,1.30
2022-07-31T23:30:07.756Z,1.40
2022-07-31T23:32:35.947Z,1.50
2022-07-31T23:35:04.419Z,1.70
2022-07-31T23:37:33.774Z,1.63
2022-07-31T23:40:01.790Z,1.60
2022-07-31T23:42:38.132Z,1.60
2022-07-31T23:45:11.540Z,1.60
2022-07-31T23:47:45.778Z,1.60
2022-07-31T23:50:14.942Z,1.77
2022-07-31T23:52:44.920Z,1.60
2022-07-31T23:55:13.632Z,1.37
2022-07-31T23:57:42.149Z,1.50
